sensor_id;sensor_type;location;lat;lon;timestamp;P1;durP1;ratioP1;P2;durP2;ratioP2
26822;SDS011;14852;51.910;8.878;2023-04-06T00:02:05;5.43;;;4.28;;
26822;SDS011;14852;51.910;8.878;2023-04-06T00:04:31;6.10;;;5.32;;
26822;SDS011;14852;51.910;8.878;2023-04-06T00:06:57;6.75;;;5.30;;
26822;SDS011;14852;51.910;8.878;2023-04-06T00:09:22;8.20;;;4.93;;
26822;SDS011;14852;51.910;8.878;2023-04-06T00:11:48;7.32;;;4.70;;
26822;SDS011;14852;51.910;8.878;2023-04-06T00:14:14;5.47;;;4.60;;
26822;SDS011;14852;51.910;8.878;2023-04-06T00:16:42;6.05;;;4.85;;
26822;SDS011;14852;51.910;8.878;2023-04-06T00:19:08;7.38;;;5.22;;
26822;SDS011;14852;51.910;8.878;2023-04-06T00:21:33;5.95;;;4.70;;
26822;SDS011;14852;51.910;8.878;2023-04-06T00:23:59;4.85;;;4.25;;
26822;SDS011;14852;51.910;8.878;2023-04-06T00:26:25;5.53;;;4.28;;
26822;SDS011;14852;51.910;8.878;2023-04-06T00:28:53;7.05;;;4.93;;
26822;SDS011;14852;51.910;8.878;2023-04-06T00:31:19;7.13;;;5.22;;
26822;SDS011;14852;51.910;8.878;2023-04-06T00:33:45;6.07;;;4.60;;
26822;SDS011;14852;51.910;8.878;2023-04-06T00:36:11;6.28;;;5.05;;
26822;SDS011;14852;51.910;8.878;2023-04-06T00:38:36;6.38;;;4.03;;
26822;SDS011;14852;51.910;8.878;2023-04-06T00:41:03;6.00;;;4.78;;
26822;SDS011;14852;51.910;8.878;2023-04-06T00:43:29;6.63;;;5.05;;
26822;SDS011;14852;51.910;8.878;2023-04-06T00:45:56;7.32;;;5.47;;
26822;SDS011;14852;51.910;8.878;2023-04-06T00:48:21;8.38;;;5.47;;
26822;SDS011;14852;51.910;8.878;2023-04-06T00:50:47;6.10;;;5.07;;
26822;SDS011;14852;51.910;8.878;2023-04-06T00:53:13;6.25;;;4.63;;
26822;SDS011;14852;51.910;8.878;2023-04-06T00:55:40;8.13;;;4.90;;
26822;SDS011;14852;51.910;8.878;2023-04-06T00:58:06;7.22;;;5.10;;
26822;SDS011;14852;51.910;8.878;2023-04-06T01:00:40;6.70;;;5.18;;
26822;SDS011;14852;51.910;8.878;2023-04-06T01:03:08;9.23;;;5.93;;
26822;SDS011;14852;51.910;8.878;2023-04-06T01:05:38;7.55;;;5.40;;
26822;SDS011;14852;51.910;8.878;2023-04-06T01:08:09;7.65;;;5.38;;
26822;SDS011;14852;51.910;8.878;2023-04-06T01:10:35;7.75;;;5.63;;
26822;SDS011;14852;51.910;8.878;2023-04-06T01:13:11;6.75;;;4.93;;
26822;SDS011;14852;51.910;8.878;2023-04-06T01:15:44;8.63;;;4.90;;
26822;SDS011;14852;51.910;8.878;2023-04-06T01:18:15;6.75;;;5.72;;
26822;SDS011;14852;51.910;8.878;2023-04-06T01:20:49;6.45;;;5.53;;
26822;SDS011;14852;51.910;8.878;2023-04-06T01:23:16;8.07;;;5.65;;
26822;SDS011;14852;51.910;8.878;2023-04-06T01:25:45;9.23;;;6.28;;
26822;SDS011;14852;51.910;8.878;2023-04-06T01:28:11;8.15;;;5.93;;
26822;SDS011;14852;51.910;8.878;2023-04-06T01:31:00;7.38;;;4.55;;
26822;SDS011;14852;51.910;8.878;2023-04-06T01:33:42;7.68;;;5.20;;
26822;SDS011;14852;51.910;8.878;2023-04-06T01:36:11;5.70;;;4.95;;
26822;SDS011;14852;51.910;8.878;2023-04-06T01:38:37;6.45;;;5.25;;
26822;SDS011;14852;51.910;8.878;2023-04-06T01:41:03;5.88;;;5.10;;
26822;SDS011;14852;51.910;8.878;2023-04-06T01:43:38;8.32;;;4.70;;
26822;SDS011;14852;51.910;8.878;2023-04-06T01:46:08;6.47;;;5.00;;
26822;SDS011;14852;51.910;8.878;2023-04-06T01:48:37;6.60;;;5.18;;
26822;SDS011;14852;51.910;8.878;2023-04-06T01:51:13;6.53;;;5.25;;
26822;SDS011;14852;51.910;8.878;2023-04-06T01:53:46;6.10;;;4.85;;
26822;SDS011;14852;51.910;8.878;2023-04-06T01:56:13;5.68;;;5.00;;
26822;SDS011;14852;51.910;8.878;2023-04-06T01:58:45;6.65;;;5.30;;
26822;SDS011;14852;51.910;8.878;2023-04-06T02:01:14;6.18;;;4.88;;
26822;SDS011;14852;51.910;8.878;2023-04-06T02:03:50;9.02;;;6.47;;
26822;SDS011;14852;51.910;8.878;2023-04-06T02:06:17;8.13;;;5.78;;
26822;SDS011;14852;51.910;8.878;2023-04-06T02:08:42;6.63;;;5.60;;
26822;SDS011;14852;51.910;8.878;2023-04-06T02:11:08;8.55;;;6.68;;
26822;SDS011;14852;51.910;8.878;2023-04-06T02:13:47;7.35;;;5.88;;
26822;SDS011;14852;51.910;8.878;2023-04-06T02:16:14;8.00;;;6.63;;
26822;SDS011;14852;51.910;8.878;2023-04-06T02:18:42;8.48;;;6.03;;
26822;SDS011;14852;51.910;8.878;2023-04-06T02:21:07;7.65;;;6.03;;
26822;SDS011;14852;51.910;8.878;2023-04-06T02:23:33;8.50;;;6.15;;
26822;SDS011;14852;51.910;8.878;2023-04-06T02:25:59;6.95;;;6.07;;
26822;SDS011;14852;51.910;8.878;2023-04-06T02:28:25;7.93;;;6.18;;
26822;SDS011;14852;51.910;8.878;2023-04-06T02:30:51;6.05;;;5.45;;
26822;SDS011;14852;51.910;8.878;2023-04-06T02:33:17;6.68;;;5.55;;
26822;SDS011;14852;51.910;8.878;2023-04-06T02:35:45;8.93;;;5.40;;
26822;SDS011;14852;51.910;8.878;2023-04-06T02:38:11;5.72;;;5.13;;
26822;SDS011;14852;51.910;8.878;2023-04-06T02:40:37;8.90;;;6.10;;
26822;SDS011;14852;51.910;8.878;2023-04-06T02:43:19;7.95;;;6.22;;
26822;SDS011;14852;51.910;8.878;2023-04-06T02:45:46;6.18;;;5.05;;
26822;SDS011;14852;51.910;8.878;2023-04-06T02:48:12;7.90;;;6.28;;
26822;SDS011;14852;51.910;8.878;2023-04-06T02:50:38;7.13;;;5.72;;
26822;SDS011;14852;51.910;8.878;2023-04-06T02:53:06;9.15;;;6.15;;
26822;SDS011;14852;51.910;8.878;2023-04-06T02:55:33;7.40;;;5.60;;
26822;SDS011;14852;51.910;8.878;2023-04-06T02:57:59;8.10;;;5.15;;
26822;SDS011;14852;51.910;8.878;2023-04-06T03:00:30;7.25;;;5.53;;
26822;SDS011;14852;51.910;8.878;2023-04-06T03:02:56;8.35;;;6.32;;
26822;SDS011;14852;51.910;8.878;2023-04-06T03:05:23;8.77;;;6.65;;
26822;SDS011;14852;51.910;8.878;2023-04-06T03:07:49;9.73;;;7.00;;
26822;SDS011;14852;51.910;8.878;2023-04-06T03:10:27;7.50;;;5.43;;
26822;SDS011;14852;51.910;8.878;2023-04-06T03:12:53;8.23;;;5.80;;
26822;SDS011;14852;51.910;8.878;2023-04-06T03:15:29;7.68;;;5.90;;
26822;SDS011;14852;51.910;8.878;2023-04-06T03:18:06;8.52;;;5.90;;
26822;SDS011;14852;51.910;8.878;2023-04-06T03:20:40;8.35;;;5.20;;
26822;SDS011;14852;51.910;8.878;2023-04-06T03:23:05;9.63;;;6.10;;
26822;SDS011;14852;51.910;8.878;2023-04-06T03:25:36;8.50;;;5.78;;
26822;SDS011;14852;51.910;8.878;2023-04-06T03:28:05;7.30;;;6.20;;
26822;SDS011;14852;51.910;8.878;2023-04-06T03:30:35;8.20;;;6.10;;
26822;SDS011;14852;51.910;8.878;2023-04-06T03:33:01;8.77;;;6.05;;
26822;SDS011;14852;51.910;8.878;2023-04-06T03:35:31;8.65;;;6.10;;
26822;SDS011;14852;51.910;8.878;2023-04-06T03:37:56;7.53;;;5.22;;
26822;SDS011;14852;51.910;8.878;2023-04-06T03:40:23;8.43;;;5.32;;
26822;SDS011;14852;51.910;8.878;2023-04-06T03:42:49;6.57;;;5.15;;
26822;SDS011;14852;51.910;8.878;2023-04-06T03:45:16;7.82;;;6.03;;
26822;SDS011;14852;51.910;8.878;2023-04-06T03:47:48;11.65;;;5.93;;
26822;SDS011;14852;51.910;8.878;2023-04-06T03:50:15;7.20;;;5.50;;
26822;SDS011;14852;51.910;8.878;2023-04-06T03:52:40;7.45;;;5.22;;
26822;SDS011;14852;51.910;8.878;2023-04-06T03:55:06;6.55;;;5.95;;
26822;SDS011;14852;51.910;8.878;2023-04-06T03:57:35;10.35;;;5.90;;
26822;SDS011;14852;51.910;8.878;2023-04-06T04:00:02;7.78;;;6.07;;
26822;SDS011;14852;51.910;8.878;2023-04-06T04:02:37;8.20;;;6.15;;
26822;SDS011;14852;51.910;8.878;2023-04-06T04:05:03;8.85;;;6.60;;
26822;SDS011;14852;51.910;8.878;2023-04-06T04:07:30;7.45;;;5.50;;
26822;SDS011;14852;51.910;8.878;2023-04-06T04:09:55;8.93;;;6.00;;
26822;SDS011;14852;51.910;8.878;2023-04-06T04:12:22;8.35;;;5.93;;
26822;SDS011;14852;51.910;8.878;2023-04-06T04:14:47;8.98;;;6.32;;
26822;SDS011;14852;51.910;8.878;2023-04-06T04:17:13;7.30;;;5.72;;
26822;SDS011;14852;51.910;8.878;2023-04-06T04:19:39;7.38;;;5.57;;
26822;SDS011;14852;51.910;8.878;2023-04-06T04:22:05;8.80;;;5.85;;
26822;SDS011;14852;51.910;8.878;2023-04-06T04:24:35;8.23;;;5.75;;
26822;SDS011;14852;51.910;8.878;2023-04-06T04:27:01;8.13;;;6.22;;
26822;SDS011;14852;51.910;8.878;2023-04-06T04:29:29;7.70;;;5.50;;
26822;SDS011;14852;51.910;8.878;2023-04-06T04:32:00;10.68;;;5.93;;
26822;SDS011;14852;51.910;8.878;2023-04-06T04:34:26;8.27;;;5.53;;
26822;SDS011;14852;51.910;8.878;2023-04-06T04:36:53;7.55;;;5.47;;
26822;SDS011;14852;51.910;8.878;2023-04-06T04:39:27;12.20;;;7.25;;
26822;SDS011;14852;51.910;8.878;2023-04-06T04:42:01;10.23;;;6.65;;
26822;SDS011;14852;51.910;8.878;2023-04-06T04:44:29;8.98;;;7.32;;
26822;SDS011;14852;51.910;8.878;2023-04-06T04:46:55;9.18;;;6.97;;
26822;SDS011;14852;51.910;8.878;2023-04-06T04:49:28;11.07;;;7.55;;
26822;SDS011;14852;51.910;8.878;2023-04-06T04:51:54;8.70;;;6.90;;
26822;SDS011;14852;51.910;8.878;2023-04-06T04:54:26;7.65;;;6.60;;
26822;SDS011;14852;51.910;8.878;2023-04-06T04:56:52;8.70;;;6.90;;
26822;SDS011;14852;51.910;8.878;2023-04-06T04:59:36;10.48;;;7.47;;
26822;SDS011;14852;51.910;8.878;2023-04-06T05:02:11;13.82;;;7.38;;
26822;SDS011;14852;51.910;8.878;2023-04-06T05:04:46;11.73;;;8.35;;
26822;SDS011;14852;51.910;8.878;2023-04-06T05:07:18;11.83;;;7.20;;
26822;SDS011;14852;51.910;8.878;2023-04-06T05:09:45;12.48;;;8.70;;
26822;SDS011;14852;51.910;8.878;2023-04-06T05:12:12;10.98;;;6.97;;
26822;SDS011;14852;51.910;8.878;2023-04-06T05:14:48;12.07;;;8.27;;
26822;SDS011;14852;51.910;8.878;2023-04-06T05:17:16;10.02;;;7.28;;
26822;SDS011;14852;51.910;8.878;2023-04-06T05:19:42;8.50;;;6.43;;
26822;SDS011;14852;51.910;8.878;2023-04-06T05:22:10;12.13;;;7.57;;
26822;SDS011;14852;51.910;8.878;2023-04-06T05:24:39;12.25;;;7.53;;
26822;SDS011;14852;51.910;8.878;2023-04-06T05:27:06;8.85;;;6.55;;
26822;SDS011;14852;51.910;8.878;2023-04-06T05:29:33;11.30;;;7.10;;
26822;SDS011;14852;51.910;8.878;2023-04-06T05:31:58;9.05;;;6.82;;
26822;SDS011;14852;51.910;8.878;2023-04-06T05:34:25;11.75;;;6.68;;
26822;SDS011;14852;51.910;8.878;2023-04-06T05:36:51;8.63;;;6.05;;
26822;SDS011;14852;51.910;8.878;2023-04-06T05:39:20;6.88;;;5.78;;
26822;SDS011;14852;51.910;8.878;2023-04-06T05:41:51;10.45;;;7.30;;
26822;SDS011;14852;51.910;8.878;2023-04-06T05:44:26;11.18;;;7.03;;
26822;SDS011;14852;51.910;8.878;2023-04-06T05:47:01;10.15;;;6.90;;
26822;SDS011;14852;51.910;8.878;2023-04-06T05:49:27;10.52;;;6.45;;
26822;SDS011;14852;51.910;8.878;2023-04-06T05:51:53;9.65;;;6.07;;
26822;SDS011;14852;51.910;8.878;2023-04-06T05:54:21;9.05;;;6.75;;
26822;SDS011;14852;51.910;8.878;2023-04-06T05:56:47;9.15;;;6.15;;
26822;SDS011;14852;51.910;8.878;2023-04-06T05:59:13;8.73;;;6.10;;
26822;SDS011;14852;51.910;8.878;2023-04-06T06:01:42;10.85;;;6.53;;
26822;SDS011;14852;51.910;8.878;2023-04-06T06:04:08;8.32;;;5.90;;
26822;SDS011;14852;51.910;8.878;2023-04-06T06:06:37;10.95;;;7.40;;
26822;SDS011;14852;51.910;8.878;2023-04-06T06:09:29;8.70;;;5.53;;
26822;SDS011;14852;51.910;8.878;2023-04-06T06:12:03;12.55;;;6.50;;
26822;SDS011;14852;51.910;8.878;2023-04-06T06:14:29;8.05;;;6.25;;
26822;SDS011;14852;51.910;8.878;2023-04-06T06:16:55;10.20;;;8.00;;
26822;SDS011;14852;51.910;8.878;2023-04-06T06:19:22;10.75;;;7.10;;
26822;SDS011;14852;51.910;8.878;2023-04-06T06:21:50;10.65;;;8.93;;
26822;SDS011;14852;51.910;8.878;2023-04-06T06:24:16;11.88;;;8.88;;
26822;SDS011;14852;51.910;8.878;2023-04-06T06:26:41;13.30;;;7.13;;
26822;SDS011;14852;51.910;8.878;2023-04-06T06:29:10;10.40;;;8.25;;
26822;SDS011;14852;51.910;8.878;2023-04-06T06:31:37;9.15;;;7.60;;
26822;SDS011;14852;51.910;8.878;2023-04-06T06:34:03;14.50;;;8.68;;
26822;SDS011;14852;51.910;8.878;2023-04-06T06:36:31;10.73;;;7.90;;
26822;SDS011;14852;51.910;8.878;2023-04-06T06:38:57;10.15;;;7.57;;
26822;SDS011;14852;51.910;8.878;2023-04-06T06:41:24;10.30;;;7.60;;
26822;SDS011;14852;51.910;8.878;2023-04-06T06:43:51;9.35;;;7.40;;
26822;SDS011;14852;51.910;8.878;2023-04-06T06:46:17;9.30;;;7.55;;
26822;SDS011;14852;51.910;8.878;2023-04-06T06:48:43;8.55;;;7.18;;
26822;SDS011;14852;51.910;8.878;2023-04-06T06:51:08;11.15;;;7.53;;
26822;SDS011;14852;51.910;8.878;2023-04-06T06:53:39;7.78;;;6.82;;
26822;SDS011;14852;51.910;8.878;2023-04-06T06:56:04;9.60;;;7.43;;
26822;SDS011;14852;51.910;8.878;2023-04-06T06:58:31;13.23;;;7.03;;
26822;SDS011;14852;51.910;8.878;2023-04-06T07:00:58;11.55;;;8.23;;
26822;SDS011;14852;51.910;8.878;2023-04-06T07:03:25;9.52;;;7.40;;
26822;SDS011;14852;51.910;8.878;2023-04-06T07:05:52;15.57;;;8.55;;
26822;SDS011;14852;51.910;8.878;2023-04-06T07:08:22;8.93;;;6.75;;
26822;SDS011;14852;51.910;8.878;2023-04-06T07:10:49;10.07;;;8.10;;
26822;SDS011;14852;51.910;8.878;2023-04-06T07:13:17;8.40;;;6.70;;
26822;SDS011;14852;51.910;8.878;2023-04-06T07:15:49;8.98;;;7.30;;
26822;SDS011;14852;51.910;8.878;2023-04-06T07:18:16;9.18;;;6.85;;
26822;SDS011;14852;51.910;8.878;2023-04-06T07:20:45;6.40;;;5.78;;
26822;SDS011;14852;51.910;8.878;2023-04-06T07:23:12;7.60;;;6.38;;
26822;SDS011;14852;51.910;8.878;2023-04-06T07:25:38;8.48;;;6.35;;
26822;SDS011;14852;51.910;8.878;2023-04-06T07:28:04;9.38;;;6.30;;
26822;SDS011;14852;51.910;8.878;2023-04-06T07:30:30;6.35;;;5.68;;
26822;SDS011;14852;51.910;8.878;2023-04-06T07:32:58;8.90;;;6.30;;
26822;SDS011;14852;51.910;8.878;2023-04-06T07:35:25;11.60;;;7.28;;
26822;SDS011;14852;51.910;8.878;2023-04-06T07:37:53;7.63;;;6.90;;
26822;SDS011;14852;51.910;8.878;2023-04-06T07:40:20;8.50;;;7.35;;
26822;SDS011;14852;51.910;8.878;2023-04-06T07:42:46;8.95;;;7.55;;
26822;SDS011;14852;51.910;8.878;2023-04-06T07:45:12;8.27;;;6.85;;
26822;SDS011;14852;51.910;8.878;2023-04-06T07:47:38;8.27;;;7.35;;
26822;SDS011;14852;51.910;8.878;2023-04-06T07:50:04;8.02;;;6.85;;
26822;SDS011;14852;51.910;8.878;2023-04-06T07:52:31;6.93;;;6.22;;
26822;SDS011;14852;51.910;8.878;2023-04-06T07:54:58;5.93;;;5.32;;
26822;SDS011;14852;51.910;8.878;2023-04-06T07:57:24;7.72;;;6.85;;
26822;SDS011;14852;51.910;8.878;2023-04-06T07:59:50;8.45;;;6.50;;
26822;SDS011;14852;51.910;8.878;2023-04-06T08:02:16;6.63;;;5.20;;
26822;SDS011;14852;51.910;8.878;2023-04-06T08:04:42;9.73;;;7.10;;
26822;SDS011;14852;51.910;8.878;2023-04-06T08:07:08;7.95;;;6.22;;
26822;SDS011;14852;51.910;8.878;2023-04-06T08:09:34;6.90;;;5.88;;
26822;SDS011;14852;51.910;8.878;2023-04-06T08:12:00;7.95;;;5.88;;
26822;SDS011;14852;51.910;8.878;2023-04-06T08:14:26;8.82;;;6.93;;
26822;SDS011;14852;51.910;8.878;2023-04-06T08:16:52;8.07;;;6.65;;
26822;SDS011;14852;51.910;8.878;2023-04-06T08:19:18;7.40;;;6.60;;
26822;SDS011;14852;51.910;8.878;2023-04-06T08:21:44;7.05;;;5.70;;
26822;SDS011;14852;51.910;8.878;2023-04-06T08:24:11;8.18;;;5.90;;
26822;SDS011;14852;51.910;8.878;2023-04-06T08:26:37;7.72;;;6.72;;
26822;SDS011;14852;51.910;8.878;2023-04-06T08:29:03;7.60;;;6.57;;
26822;SDS011;14852;51.910;8.878;2023-04-06T08:31:29;9.00;;;7.35;;
26822;SDS011;14852;51.910;8.878;2023-04-06T08:33:55;8.75;;;6.82;;
26822;SDS011;14852;51.910;8.878;2023-04-06T08:36:21;8.20;;;6.07;;
26822;SDS011;14852;51.910;8.878;2023-04-06T08:38:48;7.32;;;6.00;;
26822;SDS011;14852;51.910;8.878;2023-04-06T08:41:14;7.40;;;6.40;;
26822;SDS011;14852;51.910;8.878;2023-04-06T08:43:46;7.20;;;6.22;;
26822;SDS011;14852;51.910;8.878;2023-04-06T08:46:16;10.50;;;6.40;;
26822;SDS011;14852;51.910;8.878;2023-04-06T08:48:42;8.85;;;7.13;;
26822;SDS011;14852;51.910;8.878;2023-04-06T08:51:09;6.95;;;5.75;;
26822;SDS011;14852;51.910;8.878;2023-04-06T08:53:35;6.97;;;5.90;;
26822;SDS011;14852;51.910;8.878;2023-04-06T08:56:01;8.52;;;6.97;;
26822;SDS011;14852;51.910;8.878;2023-04-06T08:58:31;6.15;;;5.55;;
26822;SDS011;14852;51.910;8.878;2023-04-06T09:01:02;9.00;;;6.10;;
26822;SDS011;14852;51.910;8.878;2023-04-06T09:03:35;6.47;;;5.35;;
26822;SDS011;14852;51.910;8.878;2023-04-06T09:06:04;6.43;;;5.82;;
26822;SDS011;14852;51.910;8.878;2023-04-06T09:08:35;6.85;;;5.57;;
26822;SDS011;14852;51.910;8.878;2023-04-06T09:11:04;6.93;;;5.78;;
26822;SDS011;14852;51.910;8.878;2023-04-06T09:13:30;7.75;;;5.32;;
26822;SDS011;14852;51.910;8.878;2023-04-06T09:16:00;6.57;;;5.85;;
26822;SDS011;14852;51.910;8.878;2023-04-06T09:18:31;7.07;;;5.32;;
26822;SDS011;14852;51.910;8.878;2023-04-06T09:21:01;7.93;;;6.32;;
26822;SDS011;14852;51.910;8.878;2023-04-06T09:23:30;6.85;;;5.40;;
26822;SDS011;14852;51.910;8.878;2023-04-06T09:26:12;8.60;;;5.85;;
26822;SDS011;14852;51.910;8.878;2023-04-06T09:28:43;7.28;;;5.50;;
26822;SDS011;14852;51.910;8.878;2023-04-06T09:31:11;8.38;;;7.57;;
26822;SDS011;14852;51.910;8.878;2023-04-06T09:33:43;7.88;;;6.47;;
26822;SDS011;14852;51.910;8.878;2023-04-06T09:36:10;7.13;;;6.43;;
26822;SDS011;14852;51.910;8.878;2023-04-06T09:38:39;7.20;;;5.88;;
26822;SDS011;14852;51.910;8.878;2023-04-06T09:41:24;7.30;;;6.50;;
26822;SDS011;14852;51.910;8.878;2023-04-06T09:43:52;8.30;;;6.68;;
26822;SDS011;14852;51.910;8.878;2023-04-06T09:46:35;8.90;;;6.70;;
26822;SDS011;14852;51.910;8.878;2023-04-06T09:49:10;7.45;;;6.00;;
26822;SDS011;14852;51.910;8.878;2023-04-06T09:51:38;6.35;;;5.53;;
26822;SDS011;14852;51.910;8.878;2023-04-06T09:54:15;8.05;;;5.75;;
26822;SDS011;14852;51.910;8.878;2023-04-06T09:56:51;7.80;;;5.95;;
26822;SDS011;14852;51.910;8.878;2023-04-06T09:59:31;8.55;;;6.15;;
26822;SDS011;14852;51.910;8.878;2023-04-06T10:05:02;8.55;;;6.78;;
26822;SDS011;14852;51.910;8.878;2023-04-06T10:07:33;10.90;;;7.85;;
26822;SDS011;14852;51.910;8.878;2023-04-06T10:10:01;8.50;;;6.97;;
26822;SDS011;14852;51.910;8.878;2023-04-06T10:12:28;7.03;;;6.28;;
26822;SDS011;14852;51.910;8.878;2023-04-06T10:14:53;9.05;;;7.30;;
26822;SDS011;14852;51.910;8.878;2023-04-06T10:17:20;9.63;;;7.63;;
26822;SDS011;14852;51.910;8.878;2023-04-06T10:19:59;7.80;;;7.00;;
26822;SDS011;14852;51.910;8.878;2023-04-06T10:22:43;10.15;;;8.27;;
26822;SDS011;14852;51.910;8.878;2023-04-06T10:25:51;10.27;;;7.63;;
26822;SDS011;14852;51.910;8.878;2023-04-06T10:28:24;8.18;;;6.82;;
26822;SDS011;14852;51.910;8.878;2023-04-06T10:30:56;9.77;;;7.35;;
26822;SDS011;14852;51.910;8.878;2023-04-06T10:33:24;8.52;;;7.30;;
26822;SDS011;14852;51.910;8.878;2023-04-06T10:35:50;9.95;;;8.00;;
26822;SDS011;14852;51.910;8.878;2023-04-06T10:38:15;8.68;;;7.78;;
26822;SDS011;14852;51.910;8.878;2023-04-06T10:40:46;9.57;;;7.78;;
26822;SDS011;14852;51.910;8.878;2023-04-06T10:43:20;9.20;;;7.18;;
26822;SDS011;14852;51.910;8.878;2023-04-06T10:45:57;8.85;;;6.97;;
26822;SDS011;14852;51.910;8.878;2023-04-06T10:48:35;7.75;;;6.95;;
26822;SDS011;14852;51.910;8.878;2023-04-06T10:51:12;9.20;;;7.35;;
26822;SDS011;14852;51.910;8.878;2023-04-06T10:53:46;9.35;;;7.70;;
26822;SDS011;14852;51.910;8.878;2023-04-06T10:56:14;11.85;;;7.85;;
26822;SDS011;14852;51.910;8.878;2023-04-06T10:58:45;8.57;;;7.38;;
26822;SDS011;14852;51.910;8.878;2023-04-06T11:01:13;10.00;;;8.57;;
26822;SDS011;14852;51.910;8.878;2023-04-06T11:03:48;8.88;;;7.97;;
26822;SDS011;14852;51.910;8.878;2023-04-06T11:06:21;8.85;;;7.55;;
26822;SDS011;14852;51.910;8.878;2023-04-06T11:08:48;12.57;;;8.02;;
26822;SDS011;14852;51.910;8.878;2023-04-06T11:11:15;10.98;;;8.05;;
26822;SDS011;14852;51.910;8.878;2023-04-06T11:13:51;8.93;;;7.45;;
26822;SDS011;14852;51.910;8.878;2023-04-06T11:16:26;10.07;;;7.28;;
26822;SDS011;14852;51.910;8.878;2023-04-06T11:18:58;8.85;;;6.97;;
26822;SDS011;14852;51.910;8.878;2023-04-06T11:21:33;8.88;;;7.35;;
26822;SDS011;14852;51.910;8.878;2023-04-06T11:24:11;9.50;;;6.88;;
26822;SDS011;14852;51.910;8.878;2023-04-06T11:26:53;9.07;;;6.88;;
26822;SDS011;14852;51.910;8.878;2023-04-06T11:29:25;8.75;;;7.47;;
26822;SDS011;14852;51.910;8.878;2023-04-06T11:34:35;9.20;;;7.40;;
26822;SDS011;14852;51.910;8.878;2023-04-06T11:39:38;8.90;;;7.85;;
26822;SDS011;14852;51.910;8.878;2023-04-06T11:42:25;10.35;;;7.45;;
26822;SDS011;14852;51.910;8.878;2023-04-06T11:44:56;10.45;;;8.32;;
26822;SDS011;14852;51.910;8.878;2023-04-06T11:47:27;10.57;;;8.05;;
26822;SDS011;14852;51.910;8.878;2023-04-06T11:50:09;11.55;;;9.27;;
26822;SDS011;14852;51.910;8.878;2023-04-06T11:52:39;10.02;;;8.43;;
26822;SDS011;14852;51.910;8.878;2023-04-06T11:55:24;11.93;;;9.55;;
26822;SDS011;14852;51.910;8.878;2023-04-06T11:57:50;10.18;;;7.88;;
26822;SDS011;14852;51.910;8.878;2023-04-06T12:00:16;10.40;;;8.02;;
26822;SDS011;14852;51.910;8.878;2023-04-06T12:02:47;9.45;;;7.85;;
26822;SDS011;14852;51.910;8.878;2023-04-06T12:05:13;9.98;;;8.00;;
26822;SDS011;14852;51.910;8.878;2023-04-06T12:07:39;9.07;;;7.55;;
26822;SDS011;14852;51.910;8.878;2023-04-06T12:10:05;9.07;;;7.70;;
26822;SDS011;14852;51.910;8.878;2023-04-06T12:12:31;9.70;;;8.32;;
26822;SDS011;14852;51.910;8.878;2023-04-06T12:14:57;12.18;;;8.88;;
26822;SDS011;14852;51.910;8.878;2023-04-06T12:17:23;10.63;;;8.85;;
26822;SDS011;14852;51.910;8.878;2023-04-06T12:19:49;10.45;;;8.32;;
26822;SDS011;14852;51.910;8.878;2023-04-06T12:22:15;9.00;;;7.68;;
26822;SDS011;14852;51.910;8.878;2023-04-06T12:24:43;10.00;;;7.82;;
26822;SDS011;14852;51.910;8.878;2023-04-06T12:27:08;8.75;;;7.80;;
26822;SDS011;14852;51.910;8.878;2023-04-06T12:29:36;12.23;;;8.90;;
26822;SDS011;14852;51.910;8.878;2023-04-06T12:32:05;12.68;;;7.70;;
26822;SDS011;14852;51.910;8.878;2023-04-06T12:34:31;10.65;;;8.10;;
26822;SDS011;14852;51.910;8.878;2023-04-06T12:36:57;11.25;;;9.02;;
26822;SDS011;14852;51.910;8.878;2023-04-06T12:39:22;9.43;;;8.05;;
26822;SDS011;14852;51.910;8.878;2023-04-06T12:41:49;9.57;;;7.18;;
26822;SDS011;14852;51.910;8.878;2023-04-06T12:44:14;10.15;;;8.65;;
26822;SDS011;14852;51.910;8.878;2023-04-06T12:46:40;12.45;;;10.13;;
26822;SDS011;14852;51.910;8.878;2023-04-06T12:49:08;15.10;;;9.82;;
26822;SDS011;14852;51.910;8.878;2023-04-06T12:51:33;9.65;;;8.35;;
26822;SDS011;14852;51.910;8.878;2023-04-06T12:53:59;12.05;;;8.82;;
26822;SDS011;14852;51.910;8.878;2023-04-06T12:56:25;11.80;;;9.57;;
26822;SDS011;14852;51.910;8.878;2023-04-06T12:58:51;11.13;;;9.07;;
26822;SDS011;14852;51.910;8.878;2023-04-06T13:01:18;14.23;;;9.60;;
26822;SDS011;14852;51.910;8.878;2023-04-06T13:03:43;12.07;;;10.07;;
26822;SDS011;14852;51.910;8.878;2023-04-06T13:06:09;13.77;;;10.73;;
26822;SDS011;14852;51.910;8.878;2023-04-06T13:08:36;12.07;;;9.35;;
26822;SDS011;14852;51.910;8.878;2023-04-06T13:11:03;12.27;;;9.63;;
26822;SDS011;14852;51.910;8.878;2023-04-06T13:13:30;10.88;;;8.48;;
26822;SDS011;14852;51.910;8.878;2023-04-06T13:16:03;11.18;;;8.93;;
26822;SDS011;14852;51.910;8.878;2023-04-06T13:18:34;11.45;;;8.93;;
26822;SDS011;14852;51.910;8.878;2023-04-06T13:21:03;10.15;;;9.02;;
26822;SDS011;14852;51.910;8.878;2023-04-06T13:23:30;11.18;;;8.55;;
26822;SDS011;14852;51.910;8.878;2023-04-06T13:26:03;12.13;;;10.27;;
26822;SDS011;14852;51.910;8.878;2023-04-06T13:28:31;12.60;;;9.95;;
26822;SDS011;14852;51.910;8.878;2023-04-06T13:30:59;12.13;;;9.68;;
26822;SDS011;14852;51.910;8.878;2023-04-06T13:33:26;12.90;;;9.93;;
26822;SDS011;14852;51.910;8.878;2023-04-06T13:35:53;10.40;;;9.07;;
26822;SDS011;14852;51.910;8.878;2023-04-06T13:38:19;13.18;;;9.88;;
26822;SDS011;14852;51.910;8.878;2023-04-06T13:40:45;11.75;;;10.18;;
26822;SDS011;14852;51.910;8.878;2023-04-06T13:43:10;10.95;;;9.45;;
26822;SDS011;14852;51.910;8.878;2023-04-06T13:45:36;11.82;;;9.70;;
26822;SDS011;14852;51.910;8.878;2023-04-06T13:48:03;11.43;;;9.27;;
26822;SDS011;14852;51.910;8.878;2023-04-06T13:50:30;12.68;;;9.45;;
26822;SDS011;14852;51.910;8.878;2023-04-06T13:52:56;13.75;;;9.93;;
26822;SDS011;14852;51.910;8.878;2023-04-06T13:55:21;11.52;;;9.30;;
26822;SDS011;14852;51.910;8.878;2023-04-06T13:57:49;11.00;;;8.98;;
26822;SDS011;14852;51.910;8.878;2023-04-06T14:00:16;11.50;;;8.60;;
26822;SDS011;14852;51.910;8.878;2023-04-06T14:02:43;10.40;;;8.13;;
26822;SDS011;14852;51.910;8.878;2023-04-06T14:05:09;10.90;;;8.73;;
26822;SDS011;14852;51.910;8.878;2023-04-06T14:07:35;11.55;;;9.25;;
26822;SDS011;14852;51.910;8.878;2023-04-06T14:10:01;11.20;;;8.60;;
26822;SDS011;14852;51.910;8.878;2023-04-06T14:12:27;9.15;;;7.80;;
26822;SDS011;14852;51.910;8.878;2023-04-06T14:14:53;12.02;;;8.55;;
26822;SDS011;14852;51.910;8.878;2023-04-06T14:17:19;9.98;;;7.82;;
26822;SDS011;14852;51.910;8.878;2023-04-06T14:19:45;9.15;;;7.57;;
26822;SDS011;14852;51.910;8.878;2023-04-06T14:22:11;9.27;;;7.82;;
26822;SDS011;14852;51.910;8.878;2023-04-06T14:24:38;10.25;;;8.73;;
26822;SDS011;14852;51.910;8.878;2023-04-06T14:27:04;10.40;;;8.48;;
26822;SDS011;14852;51.910;8.878;2023-04-06T14:29:30;11.65;;;8.00;;
26822;SDS011;14852;51.910;8.878;2023-04-06T14:31:55;10.45;;;8.60;;
26822;SDS011;14852;51.910;8.878;2023-04-06T14:34:25;9.70;;;8.18;;
26822;SDS011;14852;51.910;8.878;2023-04-06T14:36:52;12.27;;;8.00;;
26822;SDS011;14852;51.910;8.878;2023-04-06T14:39:18;10.90;;;8.65;;
26822;SDS011;14852;51.910;8.878;2023-04-06T14:41:44;12.80;;;9.00;;
26822;SDS011;14852;51.910;8.878;2023-04-06T14:44:10;12.43;;;9.05;;
26822;SDS011;14852;51.910;8.878;2023-04-06T14:46:37;11.23;;;8.85;;
26822;SDS011;14852;51.910;8.878;2023-04-06T14:49:03;10.38;;;8.43;;
26822;SDS011;14852;51.910;8.878;2023-04-06T14:51:29;10.77;;;8.60;;
26822;SDS011;14852;51.910;8.878;2023-04-06T14:53:55;9.68;;;8.07;;
26822;SDS011;14852;51.910;8.878;2023-04-06T14:56:21;10.85;;;8.95;;
26822;SDS011;14852;51.910;8.878;2023-04-06T14:58:48;11.27;;;8.38;;
26822;SDS011;14852;51.910;8.878;2023-04-06T15:01:16;13.45;;;10.55;;